Time;durP1;ratioP1;P1;durP2;ratioP2;P2;SDS_P1;SDS_P2;PMS_P1;PMS_P2;Temp;Humidity;BMP_temperature;BMP_pressure;BME280_temperature;BME280_humidity;BME280_pressure;Samples;Min_cycle;Max_cycle;Signal;HPM_P1;HPM_P2
2024/01/27 00:01:19;;;;;;;0.20;0.10;;;;;;;;;;5031259;28;20032;-85
2024/01/27 00:03:45;;;;;;;0.20;0.10;;;;;;;;;;5023819;28;20111;-85
2024/01/27 00:06:12;;;;;;;0.20;0.10;;;;;;;;;;5041558;28;20444;-87
2024/01/27 00:08:38;;;;;;;0.20;0.00;;;;;;;;;;5023683;28;20405;-86
2024/01/27 00:11:04;;;;;;;0.20;0.10;;;;;;;;;;5045479;28;20056;-85
2024/01/27 00:13:30;;;;;;;0.20;0.10;;;;;;;;;;5030459;28;20052;-86
2024/01/27 00:15:56;;;;;;;0.20;0.10;;;;;;;;;;5018997;28;20040;-85
2024/01/27 00:18:23;;;;;;;0.20;0.10;;;;;;;;;;5039933;28;20416;-85
2024/01/27 00:20:49;;;;;;;0.20;0.10;;;;;;;;;;5029370;28;20075;-86
2024/01/27 00:23:15;;;;;;;0.20;0.10;;;;;;;;;;5023680;28;20048;-85
2024/01/27 00:25:42;;;;;;;0.20;0.03;;;;;;;;;;5027278;28;20040;-85
2024/01/27 00:28:08;;;;;;;0.20;0.10;;;;;;;;;;5020252;28;20029;-84
2024/01/27 00:30:34;;;;;;;0.20;0.10;;;;;;;;;;5040508;28;21589;-84
2024/01/27 00:33:00;;;;;;;0.20;0.10;;;;;;;;;;5024487;28;20069;-85
2024/01/27 00:35:26;;;;;;;0.20;0.10;;;;;;;;;;5022725;28;20033;-85
2024/01/27 00:37:52;;;;;;;0.20;0.10;;;;;;;;;;5027370;28;20048;-87
2024/01/27 00:40:18;;;;;;;0.20;0.10;;;;;;;;;;5024043;28;20666;-86
2024/01/27 00:42:44;;;;;;;0.20;0.10;;;;;;;;;;5025770;28;20175;-85
2024/01/27 00:45:10;;;;;;;0.20;0.10;;;;;;;;;;5022279;28;20510;-85
2024/01/27 00:47:36;;;;;;;0.20;0.10;;;;;;;;;;5022722;28;20068;-85
2024/01/27 00:50:02;;;;;;;0.20;0.10;;;;;;;;;;5024433;28;20064;-85
2024/01/27 00:52:28;;;;;;;0.20;0.10;;;;;;;;;;5042242;28;20035;-84
2024/01/27 00:54:55;;;;;;;0.20;0.10;;;;;;;;;;5029421;28;20040;-84
2024/01/27 00:57:21;;;;;;;0.20;0.10;;;;;;;;;;5030024;28;20040;-86
2024/01/27 00:59:47;;;;;;;0.20;0.05;;;;;;;;;;5029997;28;20086;-84
2024/01/27 01:02:13;;;;;;;0.20;0.10;;;;;;;;;;5036162;28;20044;-85
2024/01/27 01:04:39;;;;;;;0.20;0.10;;;;;;;;;;5030121;28;20044;-85
2024/01/27 01:07:05;;;;;;;0.20;0.15;;;;;;;;;;5043585;28;20036;-84
2024/01/27 01:09:31;;;;;;;0.20;0.10;;;;;;;;;;5021311;28;20037;-87
2024/01/27 01:11:57;;;;;;;0.20;0.10;;;;;;;;;;5024470;28;20048;-83
2024/01/27 01:14:23;;;;;;;0.20;0.10;;;;;;;;;;5042960;28;20037;-85
2024/01/27 01:16:49;;;;;;;0.20;0.10;;;;;;;;;;5028764;28;20037;-84
2024/01/27 01:19:15;;;;;;;0.20;0.10;;;;;;;;;;5031261;28;20033;-85
2024/01/27 01:21:41;;;;;;;0.20;0.10;;;;;;;;;;5035378;28;20044;-86
2024/01/27 01:24:07;;;;;;;0.20;0.00;;;;;;;;;;5027739;28;20040;-85
2024/01/27 01:26:33;;;;;;;0.20;0.10;;;;;;;;;;5032884;28;20047;-85
2024/01/27 01:28:59;;;;;;;0.20;0.10;;;;;;;;;;5025465;28;20181;-86
2024/01/27 01:31:26;;;;;;;0.20;0.10;;;;;;;;;;5043908;28;20042;-86
2024/01/27 01:33:52;;;;;;;0.20;0.10;;;;;;;;;;5012454;28;20117;-84
2024/01/27 01:36:18;;;;;;;0.20;0.10;;;;;;;;;;5019006;28;20082;-85
2024/01/27 01:38:44;;;;;;;0.20;0.10;;;;;;;;;;5023722;28;20522;-86
2024/01/27 01:41:10;;;;;;;0.20;0.10;;;;;;;;;;5019430;28;20044;-87
2024/01/27 01:43:36;;;;;;;0.20;0.10;;;;;;;;;;5042174;28;20048;-85
2024/01/27 01:46:03;;;;;;;0.20;0.10;;;;;;;;;;5039962;28;20404;-85
2024/01/27 01:48:29;;;;;;;0.20;0.08;;;;;;;;;;5018577;28;20044;-85
2024/01/27 01:50:55;;;;;;;0.20;0.10;;;;;;;;;;5029427;28;20055;-86
2024/01/27 01:53:22;;;;;;;0.20;0.10;;;;;;;;;;5047877;28;20036;-86
2024/01/27 01:55:50;;;;;;;0.20;0.00;;;;;;;;;;5030620;28;20063;-85
2024/01/27 01:58:16;;;;;;;0.20;0.10;;;;;;;;;;5034078;28;20064;-87
2024/01/27 02:00:43;;;;;;;0.20;0.10;;;;;;;;;;5028756;28;20045;-86
2024/01/27 02:03:13;;;;;;;0.20;0.10;;;;;;;;;;5048461;28;20059;-86
2024/01/27 02:05:39;;;;;;;0.20;0.10;;;;;;;;;;5054457;28;20063;-86
2024/01/27 02:08:05;;;;;;;0.20;0.10;;;;;;;;;;5033511;28;20039;-83
2024/01/27 02:10:36;;;;;;;0.20;0.10;;;;;;;;;;5029457;28;20398;-87
2024/01/27 02:13:03;;;;;;;0.20;0.10;;;;;;;;;;5045353;28;20059;-84
2024/01/27 02:15:29;;;;;;;0.20;0.10;;;;;;;;;;5043842;28;20062;-85
2024/01/27 02:17:55;;;;;;;0.20;0.00;;;;;;;;;;5032306;28;20037;-86
2024/01/27 02:20:21;;;;;;;0.20;0.10;;;;;;;;;;5024798;28;20037;-86
2024/01/27 02:22:47;;;;;;;0.20;0.10;;;;;;;;;;5031674;28;20456;-86
2024/01/27 02:25:13;;;;;;;0.20;0.20;;;;;;;;;;5036460;28;20045;-85
2024/01/27 02:27:39;;;;;;;0.20;0.10;;;;;;;;;;5033446;28;20029;-84
2024/01/27 02:30:05;;;;;;;0.20;0.10;;;;;;;;;;5027597;28;20044;-83
2024/01/27 02:32:31;;;;;;;0.20;0.10;;;;;;;;;;5047145;28;20039;-83
2024/01/27 02:34:57;;;;;;;0.20;0.10;;;;;;;;;;5027594;28;20051;-85
2024/01/27 02:37:23;;;;;;;0.20;0.10;;;;;;;;;;5025691;28;20412;-84
2024/01/27 02:39:49;;;;;;;0.20;0.10;;;;;;;;;;5053250;28;20040;-88
2024/01/27 02:42:15;;;;;;;0.20;0.10;;;;;;;;;;5033019;28;20076;-85
2024/01/27 02:44:41;;;;;;;0.20;0.10;;;;;;;;;;5033133;28;20044;-83
2024/01/27 02:47:07;;;;;;;0.20;0.10;;;;;;;;;;5048225;28;20528;-85
2024/01/27 02:49:33;;;;;;;0.20;0.10;;;;;;;;;;5038363;28;20082;-86
2024/01/27 02:51:59;;;;;;;0.20;0.10;;;;;;;;;;5033333;28;20642;-87
2024/01/27 02:54:27;;;;;;;0.20;0.10;;;;;;;;;;5031543;28;20048;-87
2024/01/27 02:56:53;;;;;;;0.20;0.10;;;;;;;;;;5030361;28;20055;-85
2024/01/27 02:59:19;;;;;;;0.20;0.10;;;;;;;;;;5039904;28;20076;-85
2024/01/27 03:01:45;;;;;;;0.20;0.10;;;;;;;;;;5038538;28;20040;-84
2024/01/27 03:04:11;;;;;;;0.20;0.10;;;;;;;;;;5058739;28;20680;-87
2024/01/27 03:06:37;;;;;;;0.20;0.10;;;;;;;;;;5055542;28;20048;-83
2024/01/27 03:09:03;;;;;;;0.20;0.10;;;;;;;;;;5036394;28;20112;-83
2024/01/27 03:11:29;;;;;;;0.20;0.10;;;;;;;;;;5041453;28;20039;-85
2024/01/27 03:13:55;;;;;;;0.20;0.00;;;;;;;;;;5034683;28;20033;-85
2024/01/27 03:16:21;;;;;;;0.20;0.10;;;;;;;;;;5030214;28;20037;-84
2024/01/27 03:18:47;;;;;;;0.20;0.10;;;;;;;;;;5054983;28;20055;-83
2024/01/27 03:21:13;;;;;;;0.20;0.10;;;;;;;;;;5034951;28;20174;-85
2024/01/27 03:23:39;;;;;;;0.20;0.10;;;;;;;;;;5042265;28;20037;-83
2024/01/27 03:26:05;;;;;;;0.20;0.00;;;;;;;;;;5038800;28;20064;-85
2024/01/27 03:28:31;;;;;;;0.20;0.00;;;;;;;;;;5038910;28;20071;-83
2024/01/27 03:30:59;;;;;;;0.20;0.10;;;;;;;;;;5054687;28;20045;-84
2024/01/27 03:33:25;;;;;;;0.20;0.10;;;;;;;;;;5040544;28;20029;-85
2024/01/27 03:35:51;;;;;;;0.20;0.10;;;;;;;;;;5054603;28;20044;-84
2024/01/27 03:38:17;;;;;;;0.20;0.10;;;;;;;;;;5039776;28;20075;-85
2024/01/27 03:40:43;;;;;;;0.20;0.10;;;;;;;;;;5035623;23;20123;-84
2024/01/27 03:43:09;;;;;;;0.20;0.10;;;;;;;;;;5004451;28;20556;-83
2024/01/27 03:45:35;;;;;;;0.20;0.00;;;;;;;;;;4989450;28;20041;-83
2024/01/27 03:48:01;;;;;;;0.20;0.10;;;;;;;;;;5007139;28;20123;-85
2024/01/27 03:50:27;;;;;;;0.20;0.10;;;;;;;;;;5004453;28;20041;-84
2024/01/27 03:52:53;;;;;;;0.20;0.10;;;;;;;;;;4976233;28;20034;-84
2024/01/27 03:55:19;;;;;;;0.20;0.10;;;;;;;;;;4995070;28;20112;-86
2024/01/27 03:57:45;;;;;;;0.20;0.10;;;;;;;;;;5011845;28;20496;-85
2024/01/27 04:00:12;;;;;;;0.20;0.10;;;;;;;;;;5009319;28;20049;-84
2024/01/27 04:02:38;;;;;;;0.20;0.10;;;;;;;;;;5004899;28;20069;-85
2024/01/27 04:05:05;;;;;;;0.20;0.10;;;;;;;;;;4994382;28;20140;-85
2024/01/27 04:07:31;;;;;;;0.20;0.10;;;;;;;;;;4993387;28;20040;-85
2024/01/27 04:09:57;;;;;;;0.20;0.10;;;;;;;;;;5005520;28;20045;-85
2024/01/27 04:12:23;;;;;;;0.20;0.10;;;;;;;;;;4986214;28;20042;-85
2024/01/27 04:14:49;;;;;;;0.20;0.10;;;;;;;;;;4989870;28;20132;-86
2024/01/27 04:17:15;;;;;;;0.20;0.10;;;;;;;;;;5003626;28;20128;-85
2024/01/27 04:19:41;;;;;;;0.20;0.10;;;;;;;;;;4995184;28;20137;-85
2024/01/27 04:22:07;;;;;;;0.20;0.10;;;;;;;;;;5004891;28;20532;-85
2024/01/27 04:24:33;;;;;;;0.20;0.10;;;;;;;;;;4989605;28;20034;-84
2024/01/27 04:27:02;;;;;;;0.20;0.10;;;;;;;;;;5007573;28;20045;-83
2024/01/27 04:29:28;;;;;;;0.20;0.10;;;;;;;;;;4989317;28;20041;-84
2024/01/27 04:31:55;;;;;;;0.20;0.10;;;;;;;;;;5015240;28;20072;-85
2024/01/27 04:34:21;;;;;;;0.20;0.10;;;;;;;;;;5011588;28;20393;-85
2024/01/27 04:36:47;;;;;;;0.20;0.10;;;;;;;;;;5015023;28;20105;-84
2024/01/27 04:39:13;;;;;;;0.20;0.10;;;;;;;;;;5011443;28;20035;-84
2024/01/27 04:41:43;;;;;;;0.73;0.68;;;;;;;;;;5009074;28;20042;-84
2024/01/27 04:44:09;;;;;;;0.20;0.10;;;;;;;;;;5010604;28;20041;-83
2024/01/27 04:46:35;;;;;;;0.20;0.10;;;;;;;;;;5009380;28;20037;-84
2024/01/27 04:49:01;;;;;;;0.20;0.10;;;;;;;;;;4989338;28;20693;-85
2024/01/27 04:51:27;;;;;;;0.20;0.10;;;;;;;;;;4994930;28;20042;-84
2024/01/27 04:53:53;;;;;;;0.20;0.10;;;;;;;;;;5009990;28;20413;-84
2024/01/27 04:56:19;;;;;;;0.20;0.10;;;;;;;;;;4998462;28;20072;-84
2024/01/27 04:58:45;;;;;;;0.20;0.10;;;;;;;;;;5011489;28;20053;-84
2024/01/27 05:01:11;;;;;;;0.20;0.10;;;;;;;;;;5013748;28;20047;-86
2024/01/27 05:03:37;;;;;;;0.20;0.10;;;;;;;;;;5013456;28;20040;-84
2024/01/27 05:06:04;;;;;;;0.20;0.10;;;;;;;;;;5012400;28;20045;-86
2024/01/27 05:08:30;;;;;;;0.20;0.10;;;;;;;;;;4998074;28;20038;-84
2024/01/27 05:10:56;;;;;;;0.20;0.10;;;;;;;;;;4992494;28;20544;-85
2024/01/27 05:13:22;;;;;;;0.20;0.10;;;;;;;;;;5004790;28;20435;-83
2024/01/27 05:15:49;;;;;;;0.20;0.10;;;;;;;;;;5007897;28;20160;-84
2024/01/27 05:18:15;;;;;;;0.20;0.10;;;;;;;;;;4994191;28;20513;-83
2024/01/27 05:20:41;;;;;;;0.20;0.10;;;;;;;;;;5004850;28;20055;-83
2024/01/27 05:23:07;;;;;;;0.20;0.10;;;;;;;;;;5009480;28;20049;-85
2024/01/27 05:25:33;;;;;;;0.20;0.10;;;;;;;;;;5002067;28;20100;-84
2024/01/27 05:27:59;;;;;;;0.20;0.10;;;;;;;;;;4990323;28;20045;-83
2024/01/27 05:30:26;;;;;;;0.20;0.10;;;;;;;;;;4993165;28;20076;-85
2024/01/27 05:32:52;;;;;;;0.20;0.10;;;;;;;;;;4997675;28;20044;-83
2024/01/27 05:35:18;;;;;;;0.20;0.10;;;;;;;;;;5003555;28;20405;-83
2024/01/27 05:37:44;;;;;;;0.20;0.10;;;;;;;;;;5006471;28;20129;-83
2024/01/27 05:40:10;;;;;;;0.20;0.10;;;;;;;;;;5015730;28;20062;-83
2024/01/27 05:42:37;;;;;;;0.20;0.10;;;;;;;;;;5005030;28;20468;-83
2024/01/27 05:45:04;;;;;;;0.20;0.10;;;;;;;;;;4995166;28;20045;-85
2024/01/27 05:47:30;;;;;;;0.20;0.10;;;;;;;;;;5004884;28;20761;-83
2024/01/27 05:49:56;;;;;;;0.20;0.10;;;;;;;;;;5008556;28;20041;-83
2024/01/27 05:52:22;;;;;;;0.20;0.10;;;;;;;;;;5007001;28;20493;-84
2024/01/27 05:54:48;;;;;;;0.20;0.10;;;;;;;;;;5005382;28;20572;-84
2024/01/27 05:57:14;;;;;;;0.20;0.10;;;;;;;;;;4990447;28;20041;-85
2024/01/27 05:59:40;;;;;;;0.80;0.80;;;;;;;;;;5004686;28;20049;-84
2024/01/27 06:02:06;;;;;;;0.20;0.10;;;;;;;;;;5001828;28;20041;-83
2024/01/27 06:04:33;;;;;;;0.20;0.10;;;;;;;;;;5002193;28;20037;-82
2024/01/27 06:07:00;;;;;;;0.20;0.10;;;;;;;;;;4988461;28;20045;-84
2024/01/27 06:09:26;;;;;;;0.20;0.00;;;;;;;;;;5001794;28;20041;-84
2024/01/27 06:11:52;;;;;;;0.20;0.10;;;;;;;;;;5009590;28;20036;-85
2024/01/27 06:14:18;;;;;;;0.25;0.25;;;;;;;;;;4999978;28;20052;-85
2024/01/27 06:16:44;;;;;;;0.20;0.10;;;;;;;;;;4984280;28;20049;-84
2024/01/27 06:19:10;;;;;;;0.20;0.10;;;;;;;;;;4993631;28;20728;-85
2024/01/27 06:21:36;;;;;;;0.20;0.10;;;;;;;;;;5005978;28;20026;-84
2024/01/27 06:24:02;;;;;;;0.20;0.10;;;;;;;;;;5002414;28;20099;-87
2024/01/27 06:26:28;;;;;;;0.20;0.10;;;;;;;;;;4995969;28;20033;-84
2024/01/27 06:28:54;;;;;;;0.20;0.10;;;;;;;;;;4990793;28;20111;-83
2024/01/27 06:31:20;;;;;;;0.20;0.10;;;;;;;;;;4993527;28;20494;-84
2024/01/27 06:33:46;;;;;;;0.20;0.10;;;;;;;;;;4993925;28;20077;-84
2024/01/27 06:36:12;;;;;;;0.20;0.10;;;;;;;;;;5012665;28;20183;-82
2024/01/27 06:38:38;;;;;;;0.20;0.10;;;;;;;;;;4993393;28;20432;-83
2024/01/27 06:41:04;;;;;;;0.20;0.17;;;;;;;;;;5014712;28;20440;-84
2024/01/27 06:43:30;;;;;;;0.20;0.10;;;;;;;;;;5018877;28;20048;-85
2024/01/27 06:45:57;;;;;;;0.20;0.10;;;;;;;;;;4992772;28;20053;-86
2024/01/27 06:48:26;;;;;;;0.20;0.10;;;;;;;;;;4999232;28;20037;-83
2024/01/27 06:50:53;;;;;;;0.20;0.10;;;;;;;;;;4995816;28;20045;-86
2024/01/27 06:53:20;;;;;;;0.20;0.10;;;;;;;;;;5003384;28;20033;-82
2024/01/27 06:55:46;;;;;;;0.20;0.10;;;;;;;;;;5015789;28;20037;-82
2024/01/27 06:58:12;;;;;;;0.20;0.10;;;;;;;;;;5012070;28;20037;-84
2024/01/27 07:00:38;;;;;;;0.20;0.10;;;;;;;;;;5009614;28;20040;-86
2024/01/27 07:03:04;;;;;;;0.20;0.10;;;;;;;;;;4995588;28;20445;-82
2024/01/27 07:05:33;;;;;;;0.30;0.30;;;;;;;;;;4992718;28;20041;-85
2024/01/27 07:07:59;;;;;;;0.20;0.10;;;;;;;;;;4997764;28;20410;-83
2024/01/27 07:10:25;;;;;;;0.20;0.10;;;;;;;;;;5012979;28;20051;-84
2024/01/27 07:12:51;;;;;;;0.20;0.10;;;;;;;;;;5011805;28;20073;-83
2024/01/27 07:15:18;;;;;;;0.20;0.10;;;;;;;;;;4999058;28;20075;-83
2024/01/27 07:17:44;;;;;;;0.20;0.10;;;;;;;;;;5014050;28;20041;-83
2024/01/27 07:20:10;;;;;;;0.20;0.10;;;;;;;;;;5013890;28;20068;-84
2024/01/27 07:22:36;;;;;;;0.20;0.10;;;;;;;;;;5011174;28;20037;-82
2024/01/27 07:25:02;;;;;;;0.20;0.10;;;;;;;;;;5006761;28;20048;-84
2024/01/27 07:27:28;;;;;;;0.20;0.05;;;;;;;;;;5008797;28;20037;-84
2024/01/27 07:29:54;;;;;;;0.20;0.00;;;;;;;;;;4997871;28;20037;-82
2024/01/27 07:32:21;;;;;;;0.20;0.20;;;;;;;;;;4997550;28;20041;-84
2024/01/27 07:34:47;;;;;;;0.20;0.00;;;;;;;;;;5013638;28;20053;-85
2024/01/27 07:37:13;;;;;;;0.20;0.10;;;;;;;;;;4999446;28;20068;-83
2024/01/27 07:39:39;;;;;;;0.20;0.10;;;;;;;;;;4999167;28;20272;-84
2024/01/27 07:42:05;;;;;;;0.20;0.10;;;;;;;;;;5009803;28;20053;-83
2024/01/27 07:44:31;;;;;;;0.20;0.15;;;;;;;;;;4968613;28;20129;-86
2024/01/27 07:46:57;;;;;;;0.20;0.10;;;;;;;;;;5010766;28;20045;-85
2024/01/27 07:49:23;;;;;;;0.20;0.10;;;;;;;;;;5015910;28;20040;-86
2024/01/27 07:51:49;;;;;;;0.20;0.20;;;;;;;;;;4994955;28;20050;-85
2024/01/27 07:54:15;;;;;;;0.20;0.10;;;;;;;;;;5009050;28;20548;-84
2024/01/27 07:56:41;;;;;;;0.68;0.68;;;;;;;;;;5006233;28;20080;-84
2024/01/27 07:59:13;;;;;;;0.20;0.10;;;;;;;;;;4994510;28;20038;-83
2024/01/27 08:01:40;;;;;;;0.20;0.10;;;;;;;;;;5038409;28;20040;-82
2024/01/27 08:04:06;;;;;;;0.20;0.10;;;;;;;;;;4989059;28;20038;-84
2024/01/27 08:06:32;;;;;;;0.20;0.10;;;;;;;;;;5007255;28;20559;-85
2024/01/27 08:08:59;;;;;;;0.20;0.10;;;;;;;;;;5011048;28;20045;-84
2024/01/27 08:11:25;;;;;;;0.20;0.10;;;;;;;;;;5009580;28;20048;-83
2024/01/27 08:13:51;;;;;;;0.20;0.10;;;;;;;;;;4993226;28;20676;-84
2024/01/27 08:16:18;;;;;;;0.20;0.10;;;;;;;;;;5006718;28;20113;-84
2024/01/27 08:18:44;;;;;;;0.20;0.10;;;;;;;;;;5011529;28;20050;-85
2024/01/27 08:21:11;;;;;;;0.20;0.08;;;;;;;;;;4975738;28;20051;-84
2024/01/27 08:23:38;;;;;;;0.20;0.10;;;;;;;;;;4990592;28;20042;-83
2024/01/27 08:26:04;;;;;;;0.20;0.10;;;;;;;;;;5008442;28;20048;-84
2024/01/27 08:28:30;;;;;;;0.20;0.10;;;;;;;;;;5002216;28;20045;-84
2024/01/27 08:30:56;;;;;;;0.20;0.10;;;;;;;;;;5004589;28;20038;-85
2024/01/27 08:33:22;;;;;;;0.20;0.10;;;;;;;;;;5006883;28;20033;-84
2024/01/27 08:35:48;;;;;;;0.20;0.10;;;;;;;;;;4988276;28;20046;-84
2024/01/27 08:38:14;;;;;;;0.20;0.10;;;;;;;;;;5007324;28;20061;-85
2024/01/27 08:40:40;;;;;;;0.40;0.20;;;;;;;;;;5007900;28;20494;-82
2024/01/27 08:43:06;;;;;;;0.20;0.10;;;;;;;;;;4991311;28;20053;-83
2024/01/27 08:45:33;;;;;;;0.20;0.10;;;;;;;;;;5037182;28;20037;-84
2024/01/27 08:47:59;;;;;;;0.20;0.10;;;;;;;;;;5009699;28;20034;-85
2024/01/27 08:50:25;;;;;;;0.20;0.10;;;;;;;;;;5041084;28;20034;-83
2024/01/27 08:52:51;;;;;;;0.20;0.10;;;;;;;;;;5011428;28;20041;-85
2024/01/27 08:55:18;;;;;;;0.20;0.10;;;;;;;;;;5019775;28;20076;-85
2024/01/27 08:57:45;;;;;;;0.20;0.10;;;;;;;;;;4992717;28;20107;-83
2024/01/27 09:00:12;;;;;;;0.20;0.10;;;;;;;;;;5006716;28;20507;-82
2024/01/27 09:02:39;;;;;;;0.20;0.10;;;;;;;;;;5006412;28;20088;-82
2024/01/27 09:05:05;;;;;;;0.20;0.10;;;;;;;;;;5007922;28;20466;-82
2024/01/27 09:07:31;;;;;;;0.20;0.20;;;;;;;;;;5006835;28;20722;-84
2024/01/27 09:09:57;;;;;;;0.20;0.10;;;;;;;;;;5020881;28;20029;-82
2024/01/27 09:12:24;;;;;;;0.20;0.10;;;;;;;;;;5008142;28;20714;-83
2024/01/27 09:14:50;;;;;;;0.20;0.10;;;;;;;;;;5011226;28;20156;-85
2024/01/27 09:17:16;;;;;;;0.20;0.10;;;;;;;;;;4986158;28;20453;-84
2024/01/27 09:19:43;;;;;;;0.20;0.10;;;;;;;;;;4994386;28;20037;-83
2024/01/27 09:22:09;;;;;;;0.20;0.10;;;;;;;;;;5010141;28;20041;-84
2024/01/27 09:24:35;;;;;;;0.20;0.20;;;;;;;;;;4996442;28;20179;-85
2024/01/27 09:27:01;;;;;;;0.20;0.10;;;;;;;;;;4998526;28;20105;-85
2024/01/27 09:29:28;;;;;;;0.20;0.10;;;;;;;;;;4986805;28;20026;-84
2024/01/27 09:31:54;;;;;;;0.20;0.10;;;;;;;;;;5008196;28;20045;-84
2024/01/27 09:34:20;;;;;;;0.20;0.10;;;;;;;;;;4994796;28;20044;-83
2024/01/27 09:36:46;;;;;;;0.20;0.10;;;;;;;;;;4991320;28;20038;-81
2024/01/27 09:39:12;;;;;;;0.57;0.30;;;;;;;;;;4994147;28;20041;-83
2024/01/27 09:41:38;;;;;;;0.20;0.10;;;;;;;;;;4992490;28;20033;-83
2024/01/27 09:44:04;;;;;;;0.20;0.10;;;;;;;;;;5015925;28;20033;-83
2024/01/27 09:46:31;;;;;;;0.20;0.10;;;;;;;;;;5011100;28;20060;-84
2024/01/27 09:48:57;;;;;;;0.30;0.20;;;;;;;;;;5013486;28;20029;-83
2024/01/27 09:51:23;;;;;;;0.20;0.10;;;;;;;;;;4997926;28;20033;-82
2024/01/27 09:53:53;;;;;;;0.20;0.10;;;;;;;;;;5008988;28;20042;-83
2024/01/27 09:56:20;;;;;;;0.20;0.15;;;;;;;;;;5013220;28;20057;-83
2024/01/27 09:58:46;;;;;;;0.40;0.40;;;;;;;;;;5011667;28;20061;-86
2024/01/27 10:01:12;;;;;;;0.20;0.10;;;;;;;;;;5009018;28;20048;-83
2024/01/27 10:03:40;;;;;;;0.20;0.10;;;;;;;;;;4994871;28;20550;-82
2024/01/27 10:06:09;;;;;;;0.20;0.10;;;;;;;;;;5011867;28;20049;-85
2024/01/27 10:08:35;;;;;;;0.20;0.10;;;;;;;;;;5007467;28;20275;-83
2024/01/27 10:11:07;;;;;;;0.20;0.10;;;;;;;;;;5026526;28;20041;-84
2024/01/27 10:13:33;;;;;;;0.20;0.10;;;;;;;;;;5008886;28;20121;-84
2024/01/27 10:16:05;;;;;;;0.20;0.10;;;;;;;;;;4987728;28;20113;-83
2024/01/27 10:18:31;;;;;;;0.20;0.10;;;;;;;;;;5021920;28;20061;-83
2024/01/27 10:20:58;;;;;;;0.20;0.10;;;;;;;;;;5009500;28;20132;-86
2024/01/27 10:23:24;;;;;;;0.20;0.10;;;;;;;;;;5008650;28;20044;-83
2024/01/27 10:25:50;;;;;;;0.35;0.35;;;;;;;;;;5008266;28;20121;-85
2024/01/27 10:28:16;;;;;;;0.20;0.10;;;;;;;;;;5024887;28;20124;-82
2024/01/27 10:30:43;;;;;;;0.20;0.10;;;;;;;;;;5017635;28;20053;-83
2024/01/27 10:33:10;;;;;;;0.20;0.20;;;;;;;;;;5008574;28;20033;-83
2024/01/27 10:35:36;;;;;;;0.20;0.10;;;;;;;;;;4988914;28;20461;-83
2024/01/27 10:38:02;;;;;;;0.20;0.10;;;;;;;;;;5007649;28;20044;-85
2024/01/27 10:40:28;;;;;;;0.20;0.10;;;;;;;;;;5015263;28;20033;-85
2024/01/27 10:43:04;;;;;;;0.20;0.10;;;;;;;;;;5006249;28;20037;-87
2024/01/27 10:45:38;;;;;;;0.20;0.10;;;;;;;;;;5003921;28;20053;-85
2024/01/27 10:48:05;;;;;;;0.20;0.10;;;;;;;;;;4988046;28;20042;-81
2024/01/27 10:50:32;;;;;;;0.55;0.45;;;;;;;;;;5008190;28;20100;-84
2024/01/27 10:52:59;;;;;;;0.20;0.20;;;;;;;;;;5007987;28;20037;-84
2024/01/27 10:55:25;;;;;;;0.20;0.10;;;;;;;;;;5011491;28;20773;-83
2024/01/27 10:57:53;;;;;;;0.20;0.10;;;;;;;;;;5012493;28;20049;-83
2024/01/27 11:00:19;;;;;;;0.20;0.10;;;;;;;;;;5010766;28;20841;-83
2024/01/27 11:02:46;;;;;;;0.20;0.10;;;;;;;;;;4999632;28;20049;-83
2024/01/27 11:05:14;;;;;;;0.20;0.10;;;;;;;;;;5002815;28;20041;-83
2024/01/27 11:07:42;;;;;;;0.20;0.10;;;;;;;;;;4992587;28;20068;-83
2024/01/27 11:10:08;;;;;;;0.20;0.10;;;;;;;;;;5021087;28;20041;-84
2024/01/27 11:12:34;;;;;;;0.20;0.00;;;;;;;;;;4994807;28;20034;-83
2024/01/27 11:15:01;;;;;;;0.20;0.10;;;;;;;;;;5046310;28;20030;-83
2024/01/27 11:17:27;;;;;;;0.20;0.10;;;;;;;;;;5012945;28;20127;-82
2024/01/27 11:19:53;;;;;;;0.20;0.10;;;;;;;;;;5012110;28;20037;-81
2024/01/27 11:22:27;;;;;;;0.20;0.10;;;;;;;;;;5005743;28;20502;-83
2024/01/27 11:24:53;;;;;;;0.25;0.15;;;;;;;;;;5013534;28;20494;-82
2024/01/27 11:27:29;;;;;;;0.20;0.00;;;;;;;;;;5012848;28;20087;-84
2024/01/27 11:29:55;;;;;;;0.20;0.10;;;;;;;;;;5013341;28;20029;-84
2024/01/27 11:32:21;;;;;;;0.25;0.20;;;;;;;;;;5010135;28;20446;-84
2024/01/27 11:34:48;;;;;;;0.20;0.00;;;;;;;;;;5008922;28;20049;-86
2024/01/27 11:37:24;;;;;;;0.20;0.10;;;;;;;;;;5012276;28;20100;-87
2024/01/27 11:39:50;;;;;;;0.20;0.10;;;;;;;;;;5012044;28;20140;-85
2024/01/27 11:42:17;;;;;;;0.20;0.05;;;;;;;;;;5012222;28;20401;-84
2024/01/27 11:44:44;;;;;;;0.20;0.03;;;;;;;;;;4995382;28;20049;-83
2024/01/27 11:47:17;;;;;;;0.20;0.10;;;;;;;;;;4991160;28;22664;-85
2024/01/27 11:49:44;;;;;;;0.20;0.10;;;;;;;;;;4992125;28;20033;-85
2024/01/27 11:52:10;;;;;;;0.20;0.10;;;;;;;;;;5011285;28;21362;-85
2024/01/27 11:54:38;;;;;;;0.70;0.25;;;;;;;;;;4993464;28;20064;-82
2024/01/27 11:57:04;;;;;;;0.20;0.10;;;;;;;;;;5007537;28;20034;-83
2024/01/27 11:59:30;;;;;;;0.20;0.00;;;;;;;;;;4998598;28;21412;-84
2024/01/27 12:01:56;;;;;;;0.20;0.00;;;;;;;;;;4996677;28;20037;-82
2024/01/27 12:04:22;;;;;;;0.45;0.45;;;;;;;;;;5010297;28;20042;-84
2024/01/27 12:06:48;;;;;;;0.20;0.10;;;;;;;;;;4997863;28;20041;-84
2024/01/27 12:09:16;;;;;;;0.20;0.10;;;;;;;;;;5007748;28;20090;-84
2024/01/27 12:11:42;;;;;;;0.20;0.10;;;;;;;;;;4993355;28;20029;-84
2024/01/27 12:14:08;;;;;;;0.20;0.10;;;;;;;;;;5009500;28;20116;-84
2024/01/27 12:16:35;;;;;;;0.20;0.10;;;;;;;;;;4993079;28;20045;-84
2024/01/27 12:19:01;;;;;;;0.20;0.10;;;;;;;;;;4990768;28;21030;-82
2024/01/27 12:21:28;;;;;;;0.20;0.00;;;;;;;;;;4990341;28;20064;-83
2024/01/27 12:23:54;;;;;;;0.20;0.00;;;;;;;;;;4991324;28;20046;-83
2024/01/27 12:26:22;;;;;;;0.20;0.10;;;;;;;;;;4986554;28;20061;-85
2024/01/27 12:28:51;;;;;;;0.20;0.10;;;;;;;;;;5007194;28;20050;-83
2024/01/27 12:31:17;;;;;;;1.10;0.40;;;;;;;;;;4998035;28;20037;-83
2024/01/27 12:33:50;;;;;;;0.20;0.10;;;;;;;;;;4989643;28;20107;-84
2024/01/27 12:36:18;;;;;;;0.28;0.13;;;;;;;;;;5008222;28;20119;-83
2024/01/27 12:38:47;;;;;;;0.20;0.00;;;;;;;;;;4993645;28;20037;-83
2024/01/27 12:41:13;;;;;;;0.20;0.10;;;;;;;;;;5037648;28;20080;-81
2024/01/27 12:43:39;;;;;;;0.20;0.00;;;;;;;;;;4994535;28;20072;-82
2024/01/27 12:46:05;;;;;;;0.35;0.22;;;;;;;;;;5004670;28;20052;-83
2024/01/27 12:48:31;;;;;;;0.20;0.10;;;;;;;;;;5009914;28;20068;-85
2024/01/27 12:50:57;;;;;;;0.20;0.05;;;;;;;;;;5027651;28;20095;-83
2024/01/27 12:53:26;;;;;;;0.20;0.10;;;;;;;;;;5004291;28;20080;-83
2024/01/27 12:55:52;;;;;;;0.20;0.20;;;;;;;;;;4993683;28;20049;-81
2024/01/27 12:58:18;;;;;;;0.20;0.20;;;;;;;;;;5038162;28;20060;-84
2024/01/27 13:00:44;;;;;;;0.20;0.10;;;;;;;;;;5004069;28;20049;-82
2024/01/27 13:03:10;;;;;;;0.20;0.10;;;;;;;;;;4989880;28;20750;-83
2024/01/27 13:05:38;;;;;;;0.20;0.10;;;;;;;;;;5012100;28;20072;-83
2024/01/27 13:08:04;;;;;;;0.20;0.10;;;;;;;;;;5020313;28;20042;-83
2024/01/27 13:10:30;;;;;;;0.20;0.10;;;;;;;;;;5009477;28;20079;-81
2024/01/27 13:12:58;;;;;;;0.65;0.40;;;;;;;;;;5012291;28;20691;-81
2024/01/27 13:15:25;;;;;;;0.20;0.00;;;;;;;;;;5002796;28;20128;-83
2024/01/27 13:17:51;;;;;;;0.20;0.10;;;;;;;;;;5022304;28;20127;-82
2024/01/27 13:20:17;;;;;;;0.20;0.10;;;;;;;;;;4988006;28;20156;-81
2024/01/27 13:22:44;;;;;;;0.20;0.10;;;;;;;;;;5000159;28;20053;-80
2024/01/27 13:25:11;;;;;;;0.20;0.10;;;;;;;;;;4984617;28;20045;-84
2024/01/27 13:27:37;;;;;;;0.25;0.20;;;;;;;;;;4986961;28;20082;-82
2024/01/27 13:30:03;;;;;;;0.20;0.10;;;;;;;;;;5004280;28;20033;-83
2024/01/27 13:32:29;;;;;;;0.20;0.10;;;;;;;;;;4992992;28;20564;-82
2024/01/27 13:34:55;;;;;;;0.20;0.10;;;;;;;;;;5008636;28;20068;-82
2024/01/27 13:37:22;;;;;;;0.50;0.25;;;;;;;;;;4989891;28;20095;-82
2024/01/27 13:39:48;;;;;;;0.20;0.10;;;;;;;;;;4994534;28;20049;-84
2024/01/27 13:42:14;;;;;;;0.20;0.15;;;;;;;;;;4987109;28;20065;-82
2024/01/27 13:44:40;;;;;;;0.30;0.30;;;;;;;;;;4995262;28;20068;-83
2024/01/27 13:47:06;;;;;;;0.20;0.00;;;;;;;;;;4991559;28;20159;-83
2024/01/27 13:49:33;;;;;;;0.20;0.10;;;;;;;;;;4993511;28;20069;-83
2024/01/27 13:51:59;;;;;;;0.20;0.00;;;;;;;;;;5009970;28;20063;-84
2024/01/27 13:54:27;;;;;;;0.20;0.10;;;;;;;;;;5036820;28;20065;-84
2024/01/27 13:56:53;;;;;;;0.20;0.10;;;;;;;;;;5004850;28;21584;-81
2024/01/27 13:59:19;;;;;;;0.20;0.10;;;;;;;;;;5005747;28;20051;-82
2024/01/27 14:01:45;;;;;;;0.20;0.10;;;;;;;;;;4992166;28;20037;-83
2024/01/27 14:04:11;;;;;;;0.30;0.20;;;;;;;;;;5006835;28;20051;-82
2024/01/27 14:06:37;;;;;;;0.20;0.10;;;;;;;;;;4993434;28;20041;-83
2024/01/27 14:09:03;;;;;;;0.20;0.10;;;;;;;;;;4992662;28;20044;-83
2024/01/27 14:11:29;;;;;;;0.20;0.10;;;;;;;;;;5009707;28;20037;-83
2024/01/27 14:13:55;;;;;;;0.20;0.10;;;;;;;;;;4991358;28;20082;-83
2024/01/27 14:16:22;;;;;;;1.48;0.40;;;;;;;;;;5007431;28;20780;-82
2024/01/27 14:18:48;;;;;;;0.20;0.10;;;;;;;;;;5001714;28;20678;-82
2024/01/27 14:21:14;;;;;;;0.20;0.00;;;;;;;;;;4991978;28;20468;-84
2024/01/27 14:23:40;;;;;;;0.30;0.30;;;;;;;;;;5025905;28;20033;-84
2024/01/27 14:26:14;;;;;;;0.20;0.10;;;;;;;;;;5006596;28;20179;-83
2024/01/27 14:28:42;;;;;;;0.20;0.10;;;;;;;;;;4992355;28;20073;-83
2024/01/27 14:31:09;;;;;;;0.20;0.10;;;;;;;;;;5020879;28;20107;-83
2024/01/27 14:33:35;;;;;;;0.20;0.10;;;;;;;;;;4994953;28;20053;-85
2024/01/27 14:36:01;;;;;;;0.30;0.13;;;;;;;;;;5011400;28;20038;-84
2024/01/27 14:38:27;;;;;;;0.20;0.10;;;;;;;;;;4998252;28;20581;-81